createdAt,value
2023-02-16T00:01:37.816Z,12.43
2023-02-16T00:04:19.844Z,11.47
2023-02-16T00:06:48.608Z,10.53
2023-02-16T00:09:16.847Z,15.93
2023-02-16T00:12:03.099Z,12.07
2023-02-16T00:14:30.882Z,11.70
2023-02-16T00:17:00.717Z,11.47
2023-02-16T00:19:30.554Z,12.03
2023-02-16T00:22:00.323Z,11.80
2023-02-16T00:24:29.948Z,12.73
2023-02-16T00:26:58.691Z,11.40
2023-02-16T00:29:29.165Z,11.37
2023-02-16T00:32:00.551Z,10.93
2023-02-16T00:34:31.856Z,13.57
2023-02-16T00:37:01.337Z,10.87
2023-02-16T00:39:29.642Z,11.13
2023-02-16T00:42:01.074Z,9.33
2023-02-16T00:44:34.231Z,10.90
2023-02-16T00:47:11.948Z,11.50
2023-02-16T00:49:39.728Z,10.10
2023-02-16T00:52:27.685Z,11.30
2023-02-16T00:54:55.482Z,9.63
2023-02-16T00:57:24.351Z,9.70
2023-02-16T00:59:59.278Z,10.43
2023-02-16T01:02:28.753Z,11.20
2023-02-16T01:04:56.639Z,10.50
2023-02-16T01:07:42.110Z,10.13
2023-02-16T01:10:28.981Z,9.97
2023-02-16T01:12:56.884Z,10.63
2023-02-16T01:15:27.315Z,9.83
2023-02-16T01:17:56.702Z,13.03
2023-02-16T01:20:26.264Z,9.77
2023-02-16T01:22:54.403Z,12.97
2023-02-16T01:25:22.344Z,11.80
2023-02-16T01:27:51.148Z,9.50
2023-02-16T01:30:21.181Z,8.70
2023-02-16T01:32:51.612Z,10.13
2023-02-16T01:35:21.465Z,8.47
2023-02-16T01:37:49.359Z,12.57
2023-02-16T01:40:31.587Z,11.47
2023-02-16T01:43:05.150Z,13.60
2023-02-16T01:45:36.449Z,10.67
2023-02-16T01:48:06.967Z,11.20
2023-02-16T01:50:45.304Z,9.90
2023-02-16T01:53:22.121Z,11.30
2023-02-16T01:55:57.022Z,12.57
2023-02-16T01:58:36.455Z,9.73
2023-02-16T02:01:38.402Z,10.83
2023-02-16T02:04:32.666Z,9.80
2023-02-16T02:07:01.769Z,9.77
2023-02-16T02:09:39.015Z,11.37
2023-02-16T02:12:15.012Z,10.40
2023-02-16T02:14:43.589Z,8.83
2023-02-16T02:17:17.389Z,9.77
2023-02-16T02:19:51.946Z,10.10
2023-02-16T02:23:06.669Z,10.03
2023-02-16T02:25:54.761Z,9.63
2023-02-16T02:28:33.305Z,8.57
2023-02-16T02:31:08.557Z,10.20
2023-02-16T02:33:49.383Z,10.20
2023-02-16T02:36:28.112Z,8.77
2023-02-16T02:39:10.275Z,9.70
2023-02-16T02:42:02.222Z,15.17
2023-02-16T02:44:34.945Z,35.30
2023-02-16T02:47:02.882Z,14.37
2023-02-16T02:49:30.635Z,13.93
2023-02-16T02:51:59.378Z,9.47
2023-02-16T02:54:48.741Z,8.47
2023-02-16T02:57:37.606Z,10.07
2023-02-16T03:00:26.884Z,8.87
2023-02-16T03:02:58.418Z,17.73
2023-02-16T03:05:30.397Z,19.53
2023-02-16T03:08:13.933Z,14.07
2023-02-16T03:11:02.142Z,9.73
2023-02-16T03:13:34.720Z,9.33
2023-02-16T03:16:08.520Z,9.93
2023-02-16T03:18:55.759Z,91.47
2023-02-16T03:21:41.775Z,98.30
2023-02-16T03:24:31.843Z,54.57
2023-02-16T03:27:17.725Z,37.97
2023-02-16T03:29:46.712Z,17.57
2023-02-16T03:32:16.489Z,18.20
2023-02-16T03:34:44.685Z,18.07
2023-02-16T03:37:13.395Z,18.03
2023-02-16T03:39:55.209Z,28.73
2023-02-16T03:42:24.208Z,27.47
2023-02-16T03:44:52.571Z,143.03
2023-02-16T03:47:21.811Z,169.33
2023-02-16T03:49:50.036Z,125.83
2023-02-16T03:52:17.826Z,59.07
2023-02-16T03:54:45.714Z,29.13
2023-02-16T03:57:13.535Z,10.30
2023-02-16T03:59:41.268Z,18.80
2023-02-16T04:02:09.041Z,55.53
2023-02-16T04:04:38.395Z,123.20
2023-02-16T04:07:06.166Z,95.37
2023-02-16T04:09:33.941Z,48.60
2023-02-16T04:12:19.381Z,20.10
2023-02-16T04:14:47.172Z,38.53
2023-02-16T04:17:14.951Z,32.23
2023-02-16T04:19:44.147Z,19.07
2023-02-16T04:22:11.945Z,21.20
2023-02-16T04:24:39.788Z,21.47
2023-02-16T04:27:07.671Z,16.83
2023-02-16T04:29:35.451Z,13.03
2023-02-16T04:32:03.355Z,10.43
2023-02-16T04:34:31.212Z,8.47
2023-02-16T04:37:01.078Z,9.47
2023-02-16T04:39:28.956Z,9.17
2023-02-16T04:41:56.719Z,159.80
2023-02-16T04:44:24.541Z,38.00
2023-02-16T04:46:52.281Z,32.90
2023-02-16T04:49:20.092Z,13.43
2023-02-16T04:51:47.931Z,21.47
2023-02-16T04:54:17.251Z,13.60
2023-02-16T04:56:45.676Z,13.07
2023-02-16T04:59:14.284Z,10.73
2023-02-16T05:01:42.535Z,13.30
2023-02-16T05:04:10.669Z,10.90
2023-02-16T05:06:38.993Z,12.40
2023-02-16T05:09:07.712Z,8.80
2023-02-16T05:11:54.586Z,9.40
2023-02-16T05:14:42.735Z,10.17
2023-02-16T05:17:11.634Z,11.63
2023-02-16T05:19:39.648Z,15.87
2023-02-16T05:22:07.786Z,24.33
2023-02-16T05:24:35.928Z,17.77
2023-02-16T05:27:07.046Z,17.23
2023-02-16T05:29:35.112Z,13.23
2023-02-16T05:32:04.701Z,11.93
2023-02-16T05:34:33.152Z,12.50
2023-02-16T05:37:00.951Z,11.33
2023-02-16T05:39:28.862Z,14.23
2023-02-16T05:41:56.619Z,15.77
2023-02-16T05:44:25.953Z,16.00
2023-02-16T05:46:53.733Z,19.67
2023-02-16T05:49:21.497Z,17.37
2023-02-16T05:51:49.553Z,17.40
2023-02-16T05:54:18.066Z,18.07
2023-02-16T05:56:46.926Z,22.17
2023-02-16T05:59:15.982Z,22.83
2023-02-16T06:01:50.451Z,20.60
2023-02-16T06:04:19.462Z,13.77
2023-02-16T06:06:47.255Z,13.70
2023-02-16T06:09:15.211Z,11.37
2023-02-16T06:11:43.563Z,11.03
2023-02-16T06:14:14.028Z,9.70
2023-02-16T06:16:44.267Z,7.97
2023-02-16T06:19:14.287Z,9.27
2023-02-16T06:21:42.804Z,11.70
2023-02-16T06:24:12.474Z,9.67
2023-02-16T06:26:40.620Z,6.77
2023-02-16T06:29:08.925Z,7.97
2023-02-16T06:31:37.215Z,8.23
2023-02-16T06:34:06.069Z,7.77
2023-02-16T06:36:35.930Z,9.93
2023-02-16T06:39:03.946Z,8.00
2023-02-16T06:41:37.762Z,8.37
2023-02-16T06:44:07.817Z,7.00
2023-02-16T06:46:36.239Z,8.43
2023-02-16T06:49:04.276Z,6.47
2023-02-16T06:51:32.136Z,6.57
2023-02-16T06:54:01.293Z,7.93
2023-02-16T06:56:29.136Z,7.90
2023-02-16T06:58:57.069Z,8.33
2023-02-16T07:01:26.072Z,8.50
2023-02-16T07:03:55.513Z,7.93
2023-02-16T07:06:25.039Z,10.97
2023-02-16T07:08:53.296Z,10.10
2023-02-16T07:11:22.800Z,12.50
2023-02-16T07:13:50.843Z,13.63
2023-02-16T07:16:18.669Z,9.30
2023-02-16T07:18:47.346Z,11.73
2023-02-16T07:21:16.102Z,10.80
2023-02-16T07:23:44.221Z,18.00
2023-02-16T07:26:12.668Z,23.60
2023-02-16T07:28:41.844Z,13.23
2023-02-16T07:31:11.350Z,9.97
2023-02-16T07:33:39.794Z,7.37
2023-02-16T07:36:08.437Z,8.63
2023-02-16T07:38:36.492Z,25.13
2023-02-16T07:41:07.775Z,15.93
2023-02-16T07:43:37.381Z,11.20
2023-02-16T07:46:06.827Z,12.10
2023-02-16T07:48:34.726Z,15.60
2023-02-16T07:51:03.090Z,14.43
2023-02-16T07:53:31.135Z,17.20
2023-02-16T07:55:59.057Z,12.97
2023-02-16T08:01:27.840Z,10.60
2023-02-16T08:03:55.693Z,10.30
2023-02-16T08:06:23.652Z,8.70
2023-02-16T08:08:51.489Z,18.50
2023-02-16T08:11:20.990Z,25.53
2023-02-16T08:13:49.140Z,20.20
2023-02-16T08:16:19.235Z,18.63
2023-02-16T08:18:48.640Z,15.57
2023-02-16T08:21:18.775Z,30.90
2023-02-16T08:23:48.945Z,22.97
2023-02-16T08:26:18.532Z,16.23
2023-02-16T08:28:47.778Z,12.63
2023-02-16T08:31:16.822Z,8.30
2023-02-16T08:33:45.024Z,10.73
2023-02-16T08:36:19.684Z,9.57
2023-02-16T08:38:50.363Z,8.03
2023-02-16T08:41:18.862Z,9.93
2023-02-16T08:43:46.992Z,14.53
2023-02-16T08:46:15.246Z,19.63
2023-02-16T08:48:45.190Z,9.10
2023-02-16T08:51:15.397Z,7.03
2023-02-16T08:53:44.614Z,6.03
2023-02-16T08:56:12.731Z,6.70
2023-02-16T08:58:40.859Z,7.50
2023-02-16T09:01:09.746Z,6.20
2023-02-16T09:03:38.389Z,5.27
2023-02-16T09:06:07.285Z,5.43
2023-02-16T09:08:37.413Z,4.33
2023-02-16T09:11:10.072Z,3.90
2023-02-16T09:13:39.636Z,5.40
2023-02-16T09:16:09.513Z,6.27
2023-02-16T09:18:37.700Z,5.03
2023-02-16T09:21:07.552Z,6.63
2023-02-16T09:23:35.845Z,4.83
2023-02-16T09:26:06.942Z,5.63
2023-02-16T09:28:37.446Z,6.67
2023-02-16T09:31:11.484Z,5.47
2023-02-16T09:33:40.081Z,5.30
2023-02-16T09:36:09.521Z,4.93
2023-02-16T09:38:39.484Z,5.47
2023-02-16T09:41:10.027Z,8.40
2023-02-16T09:43:48.653Z,6.27
2023-02-16T09:46:22.878Z,6.10
2023-02-16T09:48:53.131Z,4.20
2023-02-16T09:51:33.738Z,5.57
2023-02-16T09:54:11.839Z,5.67
2023-02-16T09:56:42.856Z,6.00
2023-02-16T09:59:20.101Z,6.57
2023-02-16T10:01:56.890Z,4.73
2023-02-16T10:04:39.005Z,4.67
2023-02-16T10:07:17.331Z,4.70
2023-02-16T10:09:51.043Z,5.97
2023-02-16T10:12:25.701Z,4.63
2023-02-16T10:14:58.995Z,6.50
2023-02-16T10:17:33.092Z,6.13
2023-02-16T10:20:04.904Z,7.27
2023-02-16T10:22:36.778Z,7.53
2023-02-16T10:25:10.497Z,7.50
2023-02-16T10:27:41.892Z,6.43
2023-02-16T10:30:16.818Z,5.97
2023-02-16T10:32:55.931Z,7.17
2023-02-16T10:35:31.431Z,4.80
2023-02-16T10:38:04.828Z,5.70
2023-02-16T10:40:42.767Z,6.47
2023-02-16T10:43:19.120Z,5.97
2023-02-16T10:45:52.747Z,4.43
2023-02-16T10:48:21.563Z,6.40
2023-02-16T10:50:58.402Z,5.17
2023-02-16T10:53:37.563Z,5.70
2023-02-16T10:56:28.178Z,6.20
2023-02-16T10:58:58.347Z,6.33
2023-02-16T11:01:39.495Z,6.00
2023-02-16T11:04:07.809Z,4.77
2023-02-16T11:06:36.676Z,5.37
2023-02-16T11:09:06.584Z,6.67
2023-02-16T11:11:38.615Z,5.97
2023-02-16T11:14:09.385Z,5.50
2023-02-16T11:16:38.898Z,7.57
2023-02-16T11:19:09.676Z,5.33
2023-02-16T11:21:46.063Z,8.13
2023-02-16T11:24:25.269Z,3.90
2023-02-16T11:27:02.290Z,4.30
2023-02-16T11:29:31.448Z,5.90
2023-02-16T11:32:06.263Z,4.83
2023-02-16T11:34:36.716Z,5.10
2023-02-16T11:37:09.081Z,3.80
2023-02-16T11:39:39.655Z,5.70
2023-02-16T11:42:10.350Z,6.53
2023-02-16T11:44:40.116Z,4.10
2023-02-16T11:47:25.164Z,6.07
2023-02-16T11:50:10.802Z,6.37
2023-02-16T11:52:38.612Z,129.70
2023-02-16T11:55:21.195Z,60.27
2023-02-16T11:57:49.140Z,14.73
2023-02-16T12:00:21.834Z,55.07
2023-02-16T12:03:13.573Z,49.47
2023-02-16T12:05:54.546Z,10.53
2023-02-16T12:08:35.408Z,7.07
2023-02-16T12:11:16.568Z,4.63
2023-02-16T12:13:53.728Z,5.70
2023-02-16T12:16:31.119Z,7.73
2023-02-16T12:19:12.175Z,5.23
2023-02-16T12:21:45.707Z,8.00
2023-02-16T12:24:28.332Z,5.60
2023-02-16T12:26:59.336Z,6.13
2023-02-16T12:29:41.375Z,6.17
2023-02-16T12:32:25.687Z,5.17
2023-02-16T12:35:13.198Z,5.10
2023-02-16T12:37:47.939Z,4.33
2023-02-16T12:40:25.146Z,6.20
2023-02-16T12:43:08.299Z,4.30
2023-02-16T12:45:38.685Z,5.20
2023-02-16T12:48:20.415Z,11.10
2023-02-16T12:50:51.152Z,5.63
2023-02-16T12:53:26.921Z,6.90
2023-02-16T12:55:59.624Z,6.87
2023-02-16T12:58:31.504Z,5.60
2023-02-16T13:01:04.038Z,6.07
2023-02-16T13:03:38.993Z,6.17
2023-02-16T13:06:19.357Z,6.13
2023-02-16T13:08:52.669Z,7.07
2023-02-16T13:11:24.401Z,7.73
2023-02-16T13:13:57.538Z,5.93
2023-02-16T13:16:31.795Z,6.53
2023-02-16T13:18:59.786Z,3.53
2023-02-16T13:21:53.933Z,6.50
2023-02-16T13:24:34.008Z,5.23
2023-02-16T13:27:14.962Z,5.07
2023-02-16T13:30:01.328Z,7.60
2023-02-16T13:32:52.200Z,5.80
2023-02-16T13:35:34.436Z,5.90
2023-02-16T13:38:18.844Z,6.63
2023-02-16T13:41:23.019Z,6.73
2023-02-16T13:43:56.029Z,7.27
2023-02-16T13:46:30.687Z,5.13
2023-02-16T13:48:59.082Z,6.23
2023-02-16T13:51:30.953Z,7.60
2023-02-16T13:54:02.881Z,5.50
2023-02-16T13:56:36.629Z,7.10
2023-02-16T13:59:59.241Z,4.73
2023-02-16T14:02:54.282Z,4.93
2023-02-16T14:05:34.908Z,3.60
2023-02-16T14:08:16.067Z,3.60
2023-02-16T14:11:18.996Z,7.20
2023-02-16T14:13:49.274Z,6.07
2023-02-16T14:16:32.583Z,4.97
2023-02-16T14:19:03.539Z,3.70
2023-02-16T14:21:39.284Z,4.27
2023-02-16T14:24:12.214Z,3.83
2023-02-16T14:26:55.487Z,3.20
2023-02-16T14:29:27.840Z,6.50
2023-02-16T14:32:00.248Z,3.63
2023-02-16T14:34:31.496Z,5.63
2023-02-16T14:37:38.870Z,3.77
2023-02-16T14:40:16.254Z,4.50
2023-02-16T14:42:57.664Z,2.90
2023-02-16T14:45:58.383Z,4.27
2023-02-16T14:48:50.282Z,4.43
2023-02-16T14:51:40.482Z,5.57
2023-02-16T14:54:38.270Z,4.00
2023-02-16T14:57:11.941Z,7.43
2023-02-16T14:59:48.991Z,5.70
2023-02-16T15:02:28.792Z,5.17
2023-02-16T15:04:58.117Z,4.23
2023-02-16T15:07:27.915Z,3.83
2023-02-16T15:10:04.947Z,4.03
2023-02-16T15:12:33.379Z,3.80
2023-02-16T15:15:05.203Z,3.67
2023-02-16T15:17:36.892Z,4.53
2023-02-16T15:20:11.209Z,4.50
2023-02-16T15:22:44.292Z,3.83
2023-02-16T15:25:25.000Z,3.83
2023-02-16T15:28:00.302Z,4.47
2023-02-16T15:30:31.364Z,3.93
2023-02-16T15:33:02.174Z,5.67
2023-02-16T15:35:35.904Z,4.43
2023-02-16T15:38:10.263Z,4.33
2023-02-16T15:40:38.536Z,5.43
2023-02-16T15:43:19.172Z,4.87
2023-02-16T15:45:52.582Z,6.03
2023-02-16T15:48:30.357Z,6.00
2023-02-16T15:51:06.860Z,8.33
2023-02-16T15:53:44.616Z,6.90
2023-02-16T15:56:42.688Z,6.90
2023-02-16T15:59:35.733Z,14.80
2023-02-16T16:02:13.560Z,12.53
2023-02-16T16:04:44.421Z,17.37
2023-02-16T16:07:15.233Z,9.30
2023-02-16T16:09:45.300Z,4.80
2023-02-16T16:12:15.324Z,4.77
2023-02-16T16:14:50.696Z,8.97
2023-02-16T16:17:24.171Z,5.67
2023-02-16T16:19:52.069Z,9.17
2023-02-16T16:22:34.250Z,7.73
2023-02-16T16:25:03.001Z,5.40
2023-02-16T16:27:32.948Z,6.43
2023-02-16T16:30:14.016Z,5.13
2023-02-16T16:32:43.292Z,6.10
2023-02-16T16:35:22.764Z,5.27
2023-02-16T16:37:53.494Z,6.27
2023-02-16T16:40:24.977Z,4.13
2023-02-16T16:43:09.910Z,6.57
2023-02-16T16:45:40.343Z,7.67
2023-02-16T16:48:19.253Z,12.97
2023-02-16T16:50:49.063Z,12.10
2023-02-16T16:53:50.543Z,10.93
2023-02-16T16:56:18.813Z,7.07
2023-02-16T16:58:50.289Z,6.60
2023-02-16T17:01:19.021Z,4.93
2023-02-16T17:03:48.516Z,7.80
2023-02-16T17:06:17.563Z,15.00
2023-02-16T17:08:46.480Z,11.00
2023-02-16T17:11:20.631Z,8.77
2023-02-16T17:13:48.440Z,6.43
2023-02-16T17:16:21.042Z,10.50
2023-02-16T17:18:50.209Z,9.87
2023-02-16T17:21:18.230Z,9.97
2023-02-16T17:23:52.835Z,11.67
2023-02-16T17:26:21.490Z,10.60
2023-02-16T17:28:49.333Z,9.03
2023-02-16T17:31:17.313Z,11.77
2023-02-16T17:33:45.429Z,6.73
2023-02-16T17:36:16.626Z,7.53
2023-02-16T17:38:44.946Z,7.20
2023-02-16T17:41:19.976Z,7.70
2023-02-16T17:43:47.830Z,9.03
2023-02-16T17:46:16.442Z,7.83
2023-02-16T17:48:47.048Z,7.77
2023-02-16T17:51:17.642Z,5.80
2023-02-16T17:53:45.979Z,5.83
2023-02-16T17:56:15.463Z,6.37
2023-02-16T17:58:43.651Z,6.40
2023-02-16T18:01:14.467Z,4.33
2023-02-16T18:03:42.342Z,6.43
2023-02-16T18:06:14.563Z,7.47
2023-02-16T18:08:44.344Z,4.40
2023-02-16T18:11:12.766Z,4.90
2023-02-16T18:13:41.033Z,5.37
2023-02-16T18:16:11.730Z,4.33
2023-02-16T18:18:40.007Z,5.80
2023-02-16T18:21:08.390Z,4.83
2023-02-16T18:23:36.222Z,6.37
2023-02-16T18:26:06.962Z,6.23
2023-02-16T18:28:35.754Z,4.10
2023-02-16T18:31:06.982Z,4.77
2023-02-16T18:33:35.298Z,61.63
2023-02-16T18:36:03.853Z,102.93
2023-02-16T18:38:32.440Z,49.53
2023-02-16T18:41:00.238Z,16.40
2023-02-16T18:43:29.468Z,14.40
2023-02-16T18:45:57.290Z,8.67
2023-02-16T18:48:25.116Z,10.27
2023-02-16T18:50:52.859Z,10.47
2023-02-16T18:53:20.644Z,6.33
2023-02-16T18:55:48.412Z,6.47
2023-02-16T18:58:16.344Z,8.53
2023-02-16T19:00:45.512Z,6.30
2023-02-16T19:03:13.382Z,7.30
2023-02-16T19:05:41.357Z,6.10
2023-02-16T19:08:09.120Z,9.83
2023-02-16T19:10:36.919Z,6.33
2023-02-16T19:13:06.912Z,8.17
2023-02-16T19:15:34.755Z,7.23
2023-02-16T19:18:03.962Z,6.40
2023-02-16T19:20:31.777Z,8.17
2023-02-16T19:22:59.588Z,7.27
2023-02-16T19:25:28.774Z,8.30
2023-02-16T19:27:56.587Z,5.80
2023-02-16T19:30:24.478Z,5.90
2023-02-16T19:32:52.668Z,7.10
2023-02-16T19:35:21.923Z,9.20
2023-02-16T19:37:49.713Z,6.27
2023-02-16T19:40:18.669Z,6.23
2023-02-16T19:42:46.482Z,7.43
2023-02-16T19:45:14.318Z,6.37
2023-02-16T19:47:42.101Z,6.90
2023-02-16T19:50:10.467Z,6.77
2023-02-16T19:52:39.564Z,6.73
2023-02-16T19:55:08.432Z,4.30
2023-02-16T19:57:37.331Z,7.10
2023-02-16T20:00:05.992Z,8.20
2023-02-16T20:02:33.773Z,6.93
2023-02-16T20:05:01.558Z,7.33
2023-02-16T20:07:29.323Z,7.03
2023-02-16T20:09:58.460Z,7.37
2023-02-16T20:12:28.500Z,4.57
2023-02-16T20:14:56.540Z,5.37
2023-02-16T20:17:24.647Z,5.87
2023-02-16T20:19:52.572Z,7.30
2023-02-16T20:22:20.404Z,4.47
2023-02-16T20:24:48.180Z,5.37
2023-02-16T20:27:17.363Z,5.43
2023-02-16T20:29:45.131Z,5.23
2023-02-16T20:32:13.010Z,6.40
2023-02-16T20:34:41.002Z,4.87
2023-02-16T20:37:08.864Z,11.03
2023-02-16T20:39:36.703Z,7.10
2023-02-16T20:42:04.758Z,4.73
2023-02-16T20:44:33.874Z,5.40
2023-02-16T20:47:01.630Z,5.33
2023-02-16T20:49:29.529Z,4.93
2023-02-16T20:51:57.287Z,5.60
2023-02-16T20:54:25.072Z,5.87
2023-02-16T20:56:52.896Z,7.03
2023-02-16T20:59:20.876Z,5.57
2023-02-16T21:01:52.547Z,5.57
2023-02-16T21:04:21.083Z,5.00
2023-02-16T21:06:48.944Z,6.27
2023-02-16T21:09:17.262Z,6.23
2023-02-16T21:11:45.062Z,5.53
2023-02-16T21:14:13.859Z,5.50
2023-02-16T21:16:41.942Z,6.10
2023-02-16T21:19:21.208Z,6.37
2023-02-16T21:21:50.371Z,7.13
2023-02-16T21:24:18.164Z,5.60
2023-02-16T21:26:45.911Z,6.97
2023-02-16T21:29:13.888Z,5.10
2023-02-16T21:31:41.789Z,5.53
2023-02-16T21:34:10.958Z,6.27
2023-02-16T21:36:38.835Z,4.83
2023-02-16T21:39:06.750Z,5.97
2023-02-16T21:41:33.745Z,6.43
2023-02-16T21:44:03.110Z,8.87
2023-02-16T21:46:33.196Z,6.00
2023-02-16T21:49:00.205Z,4.17
2023-02-16T21:51:32.844Z,5.23
2023-02-16T21:54:00.978Z,5.43
2023-02-16T21:56:34.943Z,6.13
2023-02-16T21:59:03.469Z,6.47
2023-02-16T22:01:33.731Z,5.47
2023-02-16T22:04:02.078Z,7.70
2023-02-16T22:06:33.507Z,4.87
2023-02-16T22:09:02.431Z,4.50
2023-02-16T22:11:30.296Z,5.13
2023-02-16T22:13:59.943Z,5.00
2023-02-16T22:16:29.715Z,4.93
2023-02-16T22:18:58.355Z,4.70
2023-02-16T22:21:26.629Z,5.30
2023-02-16T22:23:56.066Z,3.87
2023-02-16T22:26:25.353Z,5.60
2023-02-16T22:28:53.431Z,5.73
2023-02-16T22:31:23.108Z,6.03
2023-02-16T22:33:56.526Z,6.63
2023-02-16T22:36:24.616Z,10.90
2023-02-16T22:38:53.158Z,6.30
2023-02-16T22:41:23.350Z,3.67
2023-02-16T22:43:53.886Z,3.43
2023-02-16T22:46:22.902Z,5.40
2023-02-16T22:48:50.912Z,6.80
2023-02-16T22:51:20.189Z,5.63
2023-02-16T22:53:48.950Z,4.77
2023-02-16T22:56:19.108Z,6.93
2023-02-16T22:58:48.491Z,4.87
2023-02-16T23:01:19.800Z,5.60
2023-02-16T23:03:48.534Z,6.93
2023-02-16T23:06:17.984Z,4.60
2023-02-16T23:08:46.693Z,3.93
2023-02-16T23:11:14.857Z,3.53
2023-02-16T23:13:42.619Z,3.70
2023-02-16T23:16:14.298Z,7.23
2023-02-16T23:18:43.489Z,7.77
2023-02-16T23:21:15.775Z,4.37
2023-02-16T23:23:44.273Z,4.00
2023-02-16T23:26:12.143Z,5.07
2023-02-16T23:28:41.829Z,5.53
2023-02-16T23:31:12.606Z,5.23
2023-02-16T23:33:40.837Z,5.00
2023-02-16T23:36:09.309Z,4.63
2023-02-16T23:38:37.462Z,4.73
2023-02-16T23:41:07.979Z,6.20
2023-02-16T23:43:36.307Z,4.00
2023-02-16T23:46:04.508Z,8.83
2023-02-16T23:48:34.045Z,6.63
2023-02-16T23:51:01.866Z,5.40
2023-02-16T23:53:29.903Z,7.07
2023-02-16T23:55:59.189Z,6.90
2023-02-16T23:58:28.387Z,5.83
